Port Jefferson Station, NY

2:46 AM EST on December 19, 2014 (GMT -0500)
Sikorsky Memorial | Change Station
CLOSE
Current Station
Airport
Location: Bridgeport,
Elevation: 16 ft
Nearby Weather Stations

Elev 16 ft 41.16 °N, 73.13 °W | Updated 54 minutes ago

Overcast
Overcast
36 °F
Feels Like 32 °F
N
5
Wind Variable Wind from West

Today
High -- | Low -- °F
--% Chance of Precip.
Yesterday
High -- | Low -- °F
Precip. -- in
7:12 AM 4:26 PM
Waning Crescent, 9% visible
Pressure 29.95 in
Visibility 10.0 miles
Clouds Overcast 5500 ft
Windchill 32 °F
Dew Point 28 °F
Humidity 73%
Rainfall 0.00 in
Snow Depth Not available.
UV 0 out of 12
Pollen .10 out of 12
Air Quality Not available.
Flu Activity Not available.
METAR KBDR 190652Z AUTO 26004KT 10SM OVC055 02/M02 A2995 RMK AO2 SLP142 T00221022

More Conditions Fewer Conditions

Pressure 29.95 in
Visibility 10.0 miles
Clouds Overcast 5500 ft
Windchill 32 °F
Dew Point 28 °F
Humidity 73%
Rainfall 0.00 in
Snow Depth Not available.
UV 0 out of 12
Pollen .10 out of 12
Air Quality Not available.
Flu Activity Not available.
METAR KBDR 190652Z AUTO 26004KT 10SM OVC055 02/M02 A2995 RMK AO2 SLP142 T00221022

More Conditions Fewer Conditions

10-Day Weather Forecast

Almanac

Astronomy

Dec. 19, 2014 Rise Set
Actual Time
Civil Twilight
Nautical Twilight
Astronomical Twilight
Moon
Length of Visible Light
Length of Day
Tomorrow will be .
, % of the Moon is Illuminated

Today's Extremes

State Highs State Lows

Community

WunderPhotos

Upload Photos

1,778,953 photos uploaded!

WunderBlogs® & News

Nearby

Air Quality

  Air Quality AQ Index Pollutant
Not available.

Snow Depth

Station Depth Elevation

Earthquake Activity

City Distance Mag. Time & Date
Minimum magnitude displayed is 2.5.

Coastal Water Temperatures

Place Temperature

Nearby Weather Stations